createdAt,value
2023-04-12T00:00:40.559Z,3.25
2023-04-12T00:03:12.356Z,3.00
2023-04-12T00:05:49.255Z,3.45
2023-04-12T00:08:18.812Z,2.70
2023-04-12T00:10:47.857Z,2.95
2023-04-12T00:13:18.499Z,3.25
2023-04-12T00:15:47.414Z,2.70
2023-04-12T00:18:17.716Z,3.28
2023-04-12T00:20:49.933Z,2.72
2023-04-12T00:23:19.496Z,3.65
2023-04-12T00:25:48.482Z,2.85
2023-04-12T00:28:20.293Z,3.08
2023-04-12T00:30:49.718Z,3.28
2023-04-12T00:33:19.161Z,2.90
2023-04-12T00:35:48.161Z,3.50
2023-04-12T00:38:19.272Z,2.42
2023-04-12T00:40:48.190Z,3.80
2023-04-12T00:43:19.098Z,2.88
2023-04-12T00:45:50.037Z,3.00
2023-04-12T00:48:19.111Z,2.85
2023-04-12T00:50:49.287Z,2.47
2023-04-12T00:53:22.286Z,3.15
2023-04-12T00:55:53.008Z,2.90
2023-04-12T00:58:26.873Z,2.10
2023-04-12T01:00:57.601Z,2.22
2023-04-12T01:03:28.197Z,2.03
2023-04-12T01:06:11.065Z,1.75
2023-04-12T01:08:55.993Z,2.95
2023-04-12T01:11:34.486Z,2.20
2023-04-12T01:14:25.324Z,2.20
2023-04-12T01:16:58.954Z,1.65
2023-04-12T01:19:54.439Z,2.22
2023-04-12T01:22:46.305Z,1.77
2023-04-12T01:25:34.449Z,1.70
2023-04-12T01:28:11.302Z,1.83
2023-04-12T01:30:45.915Z,1.90
2023-04-12T01:33:17.506Z,1.63
2023-04-12T01:35:48.824Z,1.45
2023-04-12T01:38:18.572Z,1.50
2023-04-12T01:40:47.335Z,1.58
2023-04-12T01:43:18.254Z,1.60
2023-04-12T01:45:47.532Z,1.60
2023-04-12T01:48:21.285Z,1.63
2023-04-12T01:51:09.702Z,1.70
2023-04-12T01:53:56.667Z,1.70
2023-04-12T01:56:31.230Z,2.25
2023-04-12T01:59:04.650Z,1.65
2023-04-12T02:01:33.641Z,2.50
2023-04-12T02:04:05.130Z,3.00
2023-04-12T02:06:36.438Z,2.13
2023-04-12T02:09:07.696Z,2.33
2023-04-12T02:11:37.277Z,2.20
2023-04-12T02:14:10.696Z,2.15
2023-04-12T02:16:42.887Z,1.80
2023-04-12T02:19:12.423Z,1.95
2023-04-12T02:21:46.438Z,2.17
2023-04-12T02:24:16.512Z,2.17
2023-04-12T02:26:46.085Z,1.90
2023-04-12T02:29:18.097Z,1.80
2023-04-12T02:31:48.677Z,1.75
2023-04-12T02:34:19.085Z,2.10
2023-04-12T02:36:49.542Z,2.33
2023-04-12T02:39:19.720Z,1.88
2023-04-12T02:41:48.823Z,2.10
2023-04-12T02:44:22.025Z,2.13
2023-04-12T02:46:52.148Z,2.30
2023-04-12T02:49:23.381Z,2.13
2023-04-12T02:51:53.542Z,2.08
2023-04-12T02:54:22.687Z,1.90
2023-04-12T02:56:53.430Z,2.50
2023-04-12T02:59:27.335Z,2.10
2023-04-12T03:01:56.877Z,2.13
2023-04-12T03:04:30.418Z,2.00
2023-04-12T03:06:59.286Z,2.22
2023-04-12T03:09:29.374Z,2.47
2023-04-12T03:11:57.890Z,2.33
2023-04-12T03:14:28.143Z,2.75
2023-04-12T03:16:59.013Z,2.45
2023-04-12T03:19:30.590Z,2.40
2023-04-12T03:21:59.832Z,2.58
2023-04-12T03:24:29.883Z,2.30
2023-04-12T03:26:59.660Z,2.38
2023-04-12T03:29:31.626Z,2.88
2023-04-12T03:32:01.206Z,2.15
2023-04-12T03:34:32.778Z,2.55
2023-04-12T03:37:03.442Z,3.00
2023-04-12T03:39:33.268Z,2.25
2023-04-12T03:42:02.676Z,2.53
2023-04-12T03:44:33.662Z,2.38
2023-04-12T03:47:02.823Z,2.45
2023-04-12T03:49:31.756Z,2.50
2023-04-12T03:52:07.872Z,2.55
2023-04-12T03:54:36.908Z,3.08
2023-04-12T03:57:05.992Z,2.88
2023-04-12T03:59:37.551Z,3.00
2023-04-12T04:02:07.408Z,2.97
2023-04-12T04:04:38.984Z,2.72
2023-04-12T04:07:09.638Z,2.85
2023-04-12T04:09:43.127Z,2.70
2023-04-12T04:12:12.334Z,2.58
2023-04-12T04:14:42.388Z,2.42
2023-04-12T04:17:11.243Z,2.70
2023-04-12T04:19:40.909Z,2.67
2023-04-12T04:22:12.498Z,2.85
2023-04-12T04:24:40.981Z,3.10
2023-04-12T04:27:09.724Z,2.28
2023-04-12T04:29:45.724Z,2.90
2023-04-12T04:32:16.046Z,2.58
2023-04-12T04:34:46.852Z,3.00
2023-04-12T04:37:17.473Z,2.40
2023-04-12T04:39:49.432Z,2.42
2023-04-12T04:42:21.527Z,2.65
2023-04-12T04:44:51.954Z,2.53
2023-04-12T04:47:22.632Z,2.40
2023-04-12T04:49:54.464Z,2.85
2023-04-12T04:52:23.448Z,2.40
2023-04-12T04:54:58.248Z,2.67
2023-04-12T04:57:29.689Z,2.50
2023-04-12T05:00:01.595Z,2.58
2023-04-12T05:02:34.652Z,2.83
2023-04-12T05:05:04.791Z,2.72
2023-04-12T05:07:33.882Z,2.72
2023-04-12T05:10:04.736Z,2.28
2023-04-12T05:12:34.504Z,2.75
2023-04-12T05:15:11.768Z,2.15
2023-04-12T05:17:57.798Z,1.98
2023-04-12T05:20:35.211Z,2.30
2023-04-12T05:23:09.715Z,1.90
2023-04-12T05:25:39.313Z,2.50
2023-04-12T05:28:14.945Z,2.05
2023-04-12T05:30:56.265Z,2.35
2023-04-12T05:33:35.443Z,3.22
2023-04-12T05:36:12.924Z,2.30
2023-04-12T05:38:45.723Z,2.38
2023-04-12T05:41:14.346Z,2.83
2023-04-12T05:43:43.231Z,2.70
2023-04-12T05:46:13.890Z,3.10
2023-04-12T05:48:47.107Z,2.78
2023-04-12T05:51:15.621Z,2.83
2023-04-12T05:53:45.134Z,3.00
2023-04-12T05:56:16.972Z,3.70
2023-04-12T05:58:47.376Z,3.42
2023-04-12T06:01:22.682Z,3.42
2023-04-12T06:06:26.416Z,3.00
2023-04-12T06:08:55.517Z,3.22
2023-04-12T06:11:24.833Z,3.25
2023-04-12T06:13:55.605Z,3.83
2023-04-12T06:16:27.355Z,4.72
2023-04-12T06:19:00.790Z,4.20
2023-04-12T06:21:31.317Z,4.28
2023-04-12T06:24:01.659Z,4.10
2023-04-12T06:26:39.408Z,4.30
2023-04-12T06:29:09.651Z,4.78
2023-04-12T06:31:38.215Z,4.53
2023-04-12T06:34:11.229Z,4.55
2023-04-12T06:36:42.411Z,4.88
2023-04-12T06:39:12.617Z,5.03
2023-04-12T06:41:44.133Z,5.35
2023-04-12T06:44:12.930Z,6.00
2023-04-12T06:46:42.556Z,7.03
2023-04-12T06:49:13.280Z,6.40
2023-04-12T06:51:43.402Z,6.60
2023-04-12T06:54:11.969Z,6.53
2023-04-12T06:56:41.141Z,6.50
2023-04-12T06:59:09.944Z,6.50
2023-04-12T07:01:41.313Z,6.72
2023-04-12T07:04:14.724Z,7.28
2023-04-12T07:06:43.462Z,6.82
2023-04-12T07:09:13.991Z,6.78
2023-04-12T07:11:43.311Z,7.00
2023-04-12T07:14:12.282Z,6.57
2023-04-12T07:16:41.104Z,7.10
2023-04-12T07:19:11.452Z,6.85
2023-04-12T07:21:42.230Z,6.78
2023-04-12T07:24:11.078Z,7.00
2023-04-12T07:26:42.608Z,6.82
2023-04-12T07:29:11.172Z,6.53
2023-04-12T07:31:39.815Z,6.13
2023-04-12T07:34:08.691Z,7.45
2023-04-12T07:36:39.406Z,7.00
2023-04-12T07:39:12.018Z,7.00
2023-04-12T07:41:43.287Z,7.53
2023-04-12T07:44:13.581Z,6.32
2023-04-12T07:46:42.476Z,7.03
2023-04-12T07:49:11.723Z,6.45
2023-04-12T07:51:42.654Z,7.65
2023-04-12T07:54:13.306Z,7.35
2023-04-12T07:56:42.337Z,7.72
2023-04-12T07:59:11.244Z,8.15
2023-04-12T08:01:40.454Z,6.40
2023-04-12T08:04:10.038Z,6.45
2023-04-12T08:06:41.660Z,4.93
2023-04-12T08:09:10.321Z,5.72
2023-04-12T08:11:38.910Z,4.75
2023-04-12T08:14:11.792Z,4.55
2023-04-12T08:16:41.346Z,4.53
2023-04-12T08:19:10.329Z,4.45
2023-04-12T08:21:41.297Z,4.68
2023-04-12T08:24:13.502Z,4.13
2023-04-12T08:26:42.225Z,5.25
2023-04-12T08:29:11.672Z,5.25
2023-04-12T08:31:41.609Z,4.65
2023-04-12T08:34:11.265Z,4.47
2023-04-12T08:36:42.197Z,5.15
2023-04-12T08:39:11.130Z,5.32
2023-04-12T08:41:43.078Z,5.45
2023-04-12T08:44:14.383Z,4.00
2023-04-12T08:46:45.020Z,4.43
2023-04-12T08:49:13.971Z,4.63
2023-04-12T08:51:45.902Z,4.70
2023-04-12T08:54:15.143Z,4.97
2023-04-12T08:56:52.507Z,4.25
2023-04-12T08:59:23.477Z,4.10
2023-04-12T09:01:55.843Z,3.75
2023-04-12T09:04:25.428Z,3.45
2023-04-12T09:06:56.987Z,3.83
2023-04-12T09:09:44.238Z,4.00
2023-04-12T09:12:13.734Z,3.38
2023-04-12T09:14:45.415Z,3.35
2023-04-12T09:17:24.717Z,3.42
2023-04-12T09:19:55.931Z,3.80
2023-04-12T09:22:37.843Z,3.83
2023-04-12T09:25:08.410Z,4.03
2023-04-12T09:27:48.958Z,4.10
2023-04-12T09:30:22.492Z,3.92
2023-04-12T09:32:54.398Z,3.38
2023-04-12T09:35:35.921Z,3.65
2023-04-12T09:38:11.065Z,2.97
2023-04-12T09:40:41.271Z,2.75
2023-04-12T09:43:10.836Z,3.17
2023-04-12T09:45:40.672Z,3.42
2023-04-12T09:48:20.541Z,2.78
2023-04-12T09:50:49.290Z,2.90
2023-04-12T09:53:23.756Z,3.33
2023-04-12T09:55:56.804Z,3.80
2023-04-12T09:58:30.655Z,3.70
2023-04-12T10:01:04.276Z,3.72
2023-04-12T10:03:33.648Z,3.47
2023-04-12T10:06:04.800Z,2.95
2023-04-12T10:08:36.652Z,3.58
2023-04-12T10:11:07.309Z,3.88
2023-04-12T10:13:39.368Z,3.53
2023-04-12T10:16:11.280Z,3.00
2023-04-12T10:18:41.809Z,3.42
2023-04-12T10:21:11.283Z,3.13
2023-04-12T10:23:42.274Z,3.35
2023-04-12T10:26:11.268Z,4.72
2023-04-12T10:28:39.960Z,3.92
2023-04-12T10:34:31.686Z,2.88
2023-04-12T10:37:04.557Z,3.58
2023-04-12T10:39:42.762Z,3.88
2023-04-12T10:42:25.398Z,3.45
2023-04-12T10:45:00.387Z,3.55
2023-04-12T10:48:01.549Z,3.47
2023-04-12T10:50:34.243Z,2.85
2023-04-12T10:53:27.664Z,3.25
2023-04-12T10:55:59.265Z,3.45
2023-04-12T10:59:00.808Z,3.00
2023-04-12T11:01:32.954Z,3.45
2023-04-12T11:04:17.393Z,3.45
2023-04-12T11:07:02.971Z,2.78
2023-04-12T11:09:44.660Z,2.83
2023-04-12T11:12:17.355Z,3.22
2023-04-12T11:14:48.359Z,3.35
2023-04-12T11:17:38.032Z,2.72
2023-04-12T11:20:19.725Z,2.85
2023-04-12T11:22:51.024Z,2.97
2023-04-12T11:25:23.112Z,3.80
2023-04-12T11:27:55.899Z,3.50
2023-04-12T11:30:29.480Z,3.40
2023-04-12T11:33:01.393Z,3.38
2023-04-12T11:35:39.220Z,3.25
2023-04-12T11:38:10.641Z,2.97
2023-04-12T11:40:42.357Z,3.28
2023-04-12T11:43:32.584Z,3.75
2023-04-12T11:46:06.598Z,3.03
2023-04-12T11:48:39.090Z,3.97
2023-04-12T11:51:32.119Z,3.42
2023-04-12T11:54:03.758Z,2.92
2023-04-12T11:56:37.606Z,3.47
2023-04-12T11:59:20.063Z,3.85
2023-04-12T12:01:56.495Z,2.92
2023-04-12T12:04:29.799Z,3.38
2023-04-12T12:07:16.810Z,2.85
2023-04-12T12:09:49.773Z,3.10
2023-04-12T12:12:23.640Z,3.65
2023-04-12T12:15:08.721Z,3.17
2023-04-12T12:17:39.799Z,2.90
2023-04-12T12:20:20.812Z,3.08
2023-04-12T12:22:50.713Z,2.95
2023-04-12T12:25:21.570Z,2.63
2023-04-12T12:27:51.386Z,2.80
2023-04-12T12:30:22.587Z,2.80
2023-04-12T12:32:53.447Z,3.25
2023-04-12T12:35:30.665Z,3.42
2023-04-12T12:38:01.163Z,2.60
2023-04-12T12:40:36.698Z,2.50
2023-04-12T12:45:41.969Z,1.90
2023-04-12T12:48:11.955Z,1.98
2023-04-12T12:50:40.891Z,1.77
2023-04-12T12:53:10.871Z,1.55
2023-04-12T12:55:40.676Z,2.35
2023-04-12T12:58:09.138Z,2.53
2023-04-12T13:00:37.772Z,2.22
2023-04-12T13:03:08.456Z,2.40
2023-04-12T13:05:39.920Z,1.70
2023-04-12T13:08:08.869Z,2.13
2023-04-12T13:10:37.505Z,2.53
2023-04-12T13:13:06.271Z,2.05
2023-04-12T13:15:36.719Z,2.13
2023-04-12T13:18:11.968Z,1.77
2023-04-12T13:20:41.160Z,1.55
2023-04-12T13:23:10.440Z,1.80
2023-04-12T13:25:40.251Z,1.50
2023-04-12T13:28:10.375Z,1.35
2023-04-12T13:30:39.077Z,1.67
2023-04-12T13:33:09.930Z,2.10
2023-04-12T13:35:38.375Z,1.10
2023-04-12T13:38:07.544Z,1.23
2023-04-12T13:40:39.565Z,1.10
2023-04-12T13:43:08.861Z,1.30
2023-04-12T13:45:39.893Z,1.38
2023-04-12T13:48:12.177Z,1.50
2023-04-12T13:50:55.715Z,1.70
2023-04-12T13:53:24.532Z,2.38
2023-04-12T13:55:54.186Z,1.60
2023-04-12T13:58:26.116Z,1.40
2023-04-12T14:01:00.677Z,1.30
2023-04-12T14:03:31.280Z,1.35
2023-04-12T14:06:01.194Z,1.25
2023-04-12T14:08:32.010Z,1.30
2023-04-12T14:11:02.035Z,1.05
2023-04-12T14:13:30.882Z,1.60
2023-04-12T14:15:59.643Z,1.20
2023-04-12T14:18:30.228Z,1.10
2023-04-12T14:20:59.437Z,1.48
2023-04-12T14:23:36.546Z,1.42
2023-04-12T14:26:06.729Z,1.60
2023-04-12T14:28:37.942Z,1.65
2023-04-12T14:31:07.946Z,1.70
2023-04-12T14:33:41.969Z,1.40
2023-04-12T14:36:11.770Z,1.70
2023-04-12T14:38:42.040Z,1.80
2023-04-12T14:41:14.095Z,1.48
2023-04-12T14:43:47.825Z,1.88
2023-04-12T14:46:21.316Z,1.55
2023-04-12T14:48:52.799Z,1.80
2023-04-12T14:51:21.797Z,1.25
2023-04-12T14:53:51.923Z,1.55
2023-04-12T14:56:30.192Z,1.55
2023-04-12T14:59:00.454Z,1.27
2023-04-12T15:01:30.949Z,1.42
2023-04-12T15:04:07.847Z,1.30
2023-04-12T15:06:42.540Z,1.38
2023-04-12T15:09:17.700Z,1.20
2023-04-12T15:14:30.398Z,1.02
2023-04-12T15:17:01.566Z,1.20
2023-04-12T15:19:36.002Z,1.38
2023-04-12T15:22:05.764Z,0.80
2023-04-12T15:24:37.151Z,1.17
2023-04-12T15:27:08.466Z,1.23
2023-04-12T15:29:37.267Z,1.10
2023-04-12T15:32:14.010Z,1.00
2023-04-12T15:34:45.502Z,1.02
2023-04-12T15:37:14.662Z,1.00
2023-04-12T15:39:43.163Z,0.90
2023-04-12T15:42:13.694Z,0.80
2023-04-12T15:44:45.674Z,1.10
2023-04-12T15:47:14.733Z,1.00
2023-04-12T15:49:45.267Z,1.10
2023-04-12T15:52:14.799Z,1.00
2023-04-12T15:54:48.538Z,1.38
2023-04-12T15:57:17.228Z,0.98
2023-04-12T15:59:45.772Z,1.25
2023-04-12T16:02:15.032Z,1.33
2023-04-12T16:05:04.057Z,2.78
2023-04-12T16:07:34.017Z,2.10
2023-04-12T16:10:03.681Z,1.50
2023-04-12T16:12:33.043Z,1.52
2023-04-12T16:15:05.191Z,0.95
2023-04-12T16:17:34.943Z,1.52
2023-04-12T16:20:10.328Z,1.73
2023-04-12T16:22:39.991Z,1.30
2023-04-12T16:25:13.648Z,1.70
2023-04-12T16:27:43.896Z,1.90
2023-04-12T16:30:13.848Z,1.42
2023-04-12T16:32:46.898Z,1.50
2023-04-12T16:35:24.321Z,2.17
2023-04-12T16:38:02.108Z,2.05
2023-04-12T16:40:31.814Z,1.85
2023-04-12T16:43:14.432Z,1.58
2023-04-12T16:45:45.781Z,1.88
2023-04-12T16:48:16.098Z,1.25
2023-04-12T16:50:48.470Z,1.90
2023-04-12T16:53:20.182Z,1.83
2023-04-12T16:55:58.031Z,1.90
2023-04-12T16:58:27.304Z,2.08
2023-04-12T17:00:58.339Z,2.03
2023-04-12T17:03:33.935Z,1.95
2023-04-12T17:06:05.647Z,2.20
2023-04-12T17:08:34.303Z,2.58
2023-04-12T17:11:08.363Z,2.13
2023-04-12T17:13:37.276Z,2.25
2023-04-12T17:16:08.924Z,2.25
2023-04-12T17:18:40.170Z,2.50
2023-04-12T17:21:13.436Z,3.70
2023-04-12T17:23:45.809Z,3.10
2023-04-12T17:26:14.969Z,1.73
2023-04-12T17:28:43.613Z,1.70
2023-04-12T17:31:12.577Z,2.15
2023-04-12T17:33:41.627Z,2.00
2023-04-12T17:36:13.283Z,1.98
2023-04-12T17:38:43.014Z,1.60
2023-04-12T17:41:12.435Z,1.70
2023-04-12T17:43:43.043Z,1.80
2023-04-12T17:46:14.437Z,1.90
2023-04-12T17:48:46.896Z,1.60
2023-04-12T17:51:19.498Z,1.70
2023-04-12T17:53:48.017Z,1.77
2023-04-12T17:56:19.727Z,1.70
2023-04-12T17:58:49.017Z,1.65
2023-04-12T18:01:17.894Z,1.73
2023-04-12T18:03:50.125Z,2.00
2023-04-12T18:06:21.668Z,1.90
2023-04-12T18:08:51.582Z,1.73
2023-04-12T18:11:21.973Z,3.78
2023-04-12T18:13:53.810Z,4.82
2023-04-12T18:16:22.339Z,1.50
2023-04-12T18:18:52.616Z,1.33
2023-04-12T18:21:23.159Z,1.33
2023-04-12T18:23:52.923Z,1.30
2023-04-12T18:26:23.902Z,1.30
2023-04-12T18:28:53.085Z,1.63
2023-04-12T18:31:23.216Z,1.30
2023-04-12T18:33:52.895Z,1.30
2023-04-12T18:36:23.762Z,2.80
2023-04-12T18:38:53.228Z,1.52
2023-04-12T18:41:22.751Z,1.77
2023-04-12T18:43:54.303Z,1.60
2023-04-12T18:46:26.744Z,1.30
2023-04-12T18:49:04.847Z,1.50
2023-04-12T18:51:36.329Z,1.90
2023-04-12T18:56:53.559Z,1.75
2023-04-12T18:59:24.581Z,1.75
2023-04-12T19:02:01.368Z,1.67
2023-04-12T19:04:35.182Z,1.83
2023-04-12T19:07:24.652Z,2.05
2023-04-12T19:10:00.217Z,2.25
2023-04-12T19:12:37.614Z,2.40
2023-04-12T19:15:18.044Z,2.05
2023-04-12T19:18:01.550Z,2.22
2023-04-12T19:20:36.503Z,2.28
2023-04-12T19:23:12.067Z,2.45
2023-04-12T19:25:47.159Z,2.70
2023-04-12T19:28:17.200Z,2.60
2023-04-12T19:30:46.938Z,2.83
2023-04-12T19:33:21.047Z,3.00
2023-04-12T19:35:51.748Z,3.20
2023-04-12T19:38:24.050Z,2.80
2023-04-12T19:40:54.573Z,2.85
2023-04-12T19:43:25.691Z,3.40
2023-04-12T19:45:55.742Z,3.10
2023-04-12T19:48:25.114Z,3.70
2023-04-12T19:50:55.352Z,3.50
2023-04-12T19:53:27.390Z,3.47
2023-04-12T19:56:05.929Z,3.97
2023-04-12T19:58:45.764Z,3.92
2023-04-12T20:01:16.160Z,4.22
2023-04-12T20:03:49.636Z,4.50
2023-04-12T20:06:22.384Z,4.18
2023-04-12T20:09:11.248Z,4.80
2023-04-12T20:11:45.160Z,5.40
2023-04-12T20:17:16.104Z,4.30
2023-04-12T20:19:48.024Z,4.15
2023-04-12T20:22:19.260Z,4.88
2023-04-12T20:24:49.805Z,5.10
2023-04-12T20:27:21.527Z,4.90
2023-04-12T20:29:50.460Z,4.32
2023-04-12T20:32:19.516Z,4.63
2023-04-12T20:34:50.009Z,4.70
2023-04-12T20:37:19.198Z,5.10
2023-04-12T20:39:49.901Z,4.32
2023-04-12T20:42:20.614Z,4.32
2023-04-12T20:44:49.721Z,4.32
2023-04-12T20:47:21.176Z,4.18
2023-04-12T20:49:50.577Z,4.15
2023-04-12T20:52:19.582Z,4.82
2023-04-12T20:54:49.383Z,4.55
2023-04-12T20:57:20.025Z,4.28
2023-04-12T20:59:48.599Z,4.40
2023-04-12T21:02:17.902Z,4.30
2023-04-12T21:04:47.214Z,4.22
2023-04-12T21:07:18.180Z,4.03
2023-04-12T21:09:48.027Z,3.85
2023-04-12T21:12:17.697Z,3.92
2023-04-12T21:14:50.062Z,3.78
2023-04-12T21:17:22.493Z,3.65
2023-04-12T21:19:51.241Z,3.50
2023-04-12T21:22:19.826Z,3.42
2023-04-12T21:24:50.155Z,3.20
2023-04-12T21:27:19.718Z,3.25
2023-04-12T21:29:48.344Z,3.33
2023-04-12T21:32:17.079Z,3.30
2023-04-12T21:34:45.456Z,2.40
2023-04-12T21:37:13.892Z,2.97
2023-04-12T21:39:43.756Z,2.60
2023-04-12T21:42:13.466Z,2.00
2023-04-12T21:44:43.394Z,2.00
2023-04-12T21:47:12.169Z,2.10
2023-04-12T21:49:40.680Z,2.20
2023-04-12T21:52:08.988Z,2.33
2023-04-12T21:54:37.507Z,1.98
2023-04-12T21:57:06.309Z,1.85
2023-04-12T21:59:36.218Z,1.90
2023-04-12T22:02:04.864Z,1.85
2023-04-12T22:04:33.515Z,1.70
2023-04-12T22:07:05.351Z,1.48
2023-04-12T22:09:45.429Z,1.42
2023-04-12T22:12:18.591Z,1.45
2023-04-12T22:14:51.080Z,1.80
2023-04-12T22:17:22.539Z,1.63
2023-04-12T22:19:53.245Z,1.20
2023-04-12T22:22:21.717Z,1.52
2023-04-12T22:24:50.287Z,1.20
2023-04-12T22:27:18.504Z,1.10
2023-04-12T22:29:51.069Z,1.10
2023-04-12T22:32:19.553Z,1.30
2023-04-12T22:34:54.838Z,1.00
2023-04-12T22:37:30.040Z,1.08
2023-04-12T22:39:58.238Z,1.10
2023-04-12T22:42:29.822Z,1.13
2023-04-12T22:44:59.858Z,1.52
2023-04-12T22:47:28.784Z,1.40
2023-04-12T22:50:01.637Z,1.08
2023-04-12T22:52:31.179Z,1.20
2023-04-12T22:54:59.581Z,0.93
2023-04-12T22:57:27.827Z,0.82
2023-04-12T22:59:57.746Z,1.52
2023-04-12T23:02:27.848Z,1.10
2023-04-12T23:04:56.137Z,1.42
2023-04-12T23:07:24.606Z,1.65
2023-04-12T23:09:52.935Z,1.00
2023-04-12T23:12:21.985Z,1.30
2023-04-12T23:14:50.865Z,1.30
2023-04-12T23:17:19.711Z,1.40
2023-04-12T23:19:51.752Z,1.20
2023-04-12T23:22:44.460Z,1.63
2023-04-12T23:25:22.467Z,1.00
2023-04-12T23:27:51.217Z,1.23
2023-04-12T23:30:20.279Z,1.02
2023-04-12T23:32:48.747Z,1.40
2023-04-12T23:35:18.572Z,1.20
2023-04-12T23:37:48.543Z,1.33
2023-04-12T23:40:16.984Z,1.20
2023-04-12T23:42:45.419Z,1.33
2023-04-12T23:45:13.737Z,1.27
2023-04-12T23:47:42.197Z,1.00
2023-04-12T23:50:11.537Z,1.40
2023-04-12T23:52:41.259Z,1.27
2023-04-12T23:55:10.840Z,1.30
2023-04-12T23:57:39.295Z,1.20
